Time;durP1;ratioP1;P1;durP2;ratioP2;P2;SDS_P1;SDS_P2;PMS_P1;PMS_P2;Temp;Humidity;BMP_temperature;BMP_pressure;BME280_temperature;BME280_humidity;BME280_pressure;Samples;Min_cycle;Max_cycle;Signal;HPM_P1;HPM_P2
2021/03/03 00:01:47;;;;;;;26.40;15.03;;;6.80;99.90;;;;;;4999727;28;20314;-68
2021/03/03 00:04:12;;;;;;;26.03;15.07;;;6.80;99.90;;;;;;4990522;28;20176;-66
2021/03/03 00:06:38;;;;;;;21.47;15.47;;;6.80;99.90;;;;;;5001895;28;20210;-67
2021/03/03 00:09:03;;;;;;;24.77;16.40;;;6.80;99.90;;;;;;4996534;28;20183;-67
2021/03/03 00:11:29;;;;;;;23.87;14.97;;;6.90;99.90;;;;;;4996743;28;20282;-67
2021/03/03 00:13:54;;;;;;;27.00;17.10;;;6.90;99.90;;;;;;4996481;28;20216;-67
2021/03/03 00:16:20;;;;;;;25.77;14.97;;;6.90;99.90;;;;;;4987702;28;20553;-67
2021/03/03 00:18:46;;;;;;;22.83;15.60;;;6.90;99.90;;;;;;4986848;28;20716;-67
2021/03/03 00:21:12;;;;;;;20.13;14.77;;;6.90;99.90;;;;;;5000193;28;20190;-67
2021/03/03 00:23:37;;;;;;;22.93;14.80;;;7.00;99.90;;;;;;4990192;28;20200;-67
2021/03/03 00:26:03;;;;;;;30.67;20.03;;;6.90;99.90;;;;;;4995109;28;20233;-67
2021/03/03 00:28:28;;;;;;;24.70;15.27;;;6.90;99.90;;;;;;4998814;28;20184;-67
2021/03/03 00:30:54;;;;;;;23.00;15.60;;;6.90;99.90;;;;;;5002315;28;20664;-67
2021/03/03 00:33:19;;;;;;;20.07;14.53;;;6.90;99.90;;;;;;4991714;28;20678;-67
2021/03/03 00:35:45;;;;;;;26.00;17.10;;;7.00;99.90;;;;;;4991005;28;20298;-67
2021/03/03 00:38:11;;;;;;;23.23;16.20;;;7.00;99.90;;;;;;4991950;28;20203;-67
2021/03/03 00:40:36;;;;;;;17.90;14.60;;;7.10;99.90;;;;;;4999477;28;20179;-67
2021/03/03 00:43:02;;;;;;;26.07;15.60;;;7.10;99.90;;;;;;4992562;28;20547;-67
2021/03/03 00:45:28;;;;;;;22.70;15.13;;;7.10;99.90;;;;;;4990165;28;20179;-66
2021/03/03 00:47:53;;;;;;;23.30;14.80;;;7.10;99.90;;;;;;4991918;28;20215;-67
2021/03/03 00:50:19;;;;;;;22.00;15.70;;;7.10;99.90;;;;;;4990933;28;20183;-67
2021/03/03 00:52:44;;;;;;;22.27;15.00;;;7.10;99.90;;;;;;4992266;28;20793;-67
2021/03/03 00:55:11;;;;;;;22.33;16.50;;;7.10;99.90;;;;;;4995570;28;20176;-67
2021/03/03 00:57:38;;;;;;;20.80;14.97;;;7.10;99.90;;;;;;4992005;28;20184;-67
2021/03/03 01:00:05;;;;;;;25.47;14.50;;;7.00;99.90;;;;;;4990575;28;20557;-68
2021/03/03 01:02:30;;;;;;;22.30;13.87;;;7.00;99.90;;;;;;4990217;28;20918;-66
2021/03/03 01:04:55;;;;;;;23.70;15.77;;;7.00;99.90;;;;;;4989997;28;20517;-67
2021/03/03 01:07:21;;;;;;;23.47;14.83;;;6.90;99.90;;;;;;4990668;28;20195;-67
2021/03/03 01:09:47;;;;;;;22.00;15.30;;;6.90;99.90;;;;;;5003494;28;20212;-67
2021/03/03 01:12:12;;;;;;;24.50;15.57;;;6.90;99.90;;;;;;4990429;28;20203;-67
2021/03/03 01:14:38;;;;;;;20.67;15.33;;;6.90;99.90;;;;;;5001731;28;20175;-67
2021/03/03 01:17:03;;;;;;;23.90;15.33;;;6.90;99.90;;;;;;4990551;28;20282;-67
2021/03/03 01:19:29;;;;;;;23.57;15.47;;;6.90;99.90;;;;;;5001590;28;20171;-67
2021/03/03 01:21:54;;;;;;;27.73;14.87;;;6.80;99.90;;;;;;4992691;28;20271;-67
2021/03/03 01:24:20;;;;;;;23.83;15.70;;;6.80;99.90;;;;;;4995199;28;20187;-67
2021/03/03 01:26:45;;;;;;;28.03;16.20;;;6.70;99.90;;;;;;4992927;28;20207;-67
2021/03/03 01:29:11;;;;;;;20.33;14.63;;;6.70;99.90;;;;;;4992360;28;20186;-67
2021/03/03 01:31:36;;;;;;;21.90;15.57;;;6.70;99.90;;;;;;4993373;28;20673;-67
2021/03/03 01:34:02;;;;;;;20.93;15.50;;;6.70;99.90;;;;;;4992955;28;20222;-67
2021/03/03 01:36:28;;;;;;;18.70;13.90;;;6.70;99.90;;;;;;4988675;28;20666;-67
2021/03/03 01:38:53;;;;;;;27.17;16.57;;;6.70;99.90;;;;;;5004273;28;20207;-67
2021/03/03 01:41:19;;;;;;;22.10;14.30;;;6.60;99.90;;;;;;4990427;28;20180;-68
2021/03/03 01:43:45;;;;;;;22.30;15.93;;;6.60;99.90;;;;;;4997876;28;20181;-67
2021/03/03 01:46:11;;;;;;;27.60;17.93;;;6.60;99.90;;;;;;4993227;28;20492;-67
2021/03/03 01:48:36;;;;;;;24.60;14.93;;;6.50;99.90;;;;;;4991400;28;20204;-67
2021/03/03 01:51:02;;;;;;;24.90;16.30;;;6.50;99.90;;;;;;4990671;28;20269;-67
2021/03/03 01:53:29;;;;;;;24.10;15.03;;;6.50;99.90;;;;;;4992313;28;20275;-67
2021/03/03 01:55:55;;;;;;;29.63;16.70;;;6.50;99.90;;;;;;4994454;28;20970;-67
2021/03/03 01:58:20;;;;;;;26.20;15.17;;;6.50;99.90;;;;;;5000684;28;20504;-67
2021/03/03 02:00:46;;;;;;;25.07;15.83;;;6.50;99.90;;;;;;5001290;28;20525;-67
2021/03/03 02:03:12;;;;;;;21.33;14.07;;;6.50;99.90;;;;;;4999701;28;20184;-67
2021/03/03 02:05:37;;;;;;;34.17;17.57;;;6.60;99.90;;;;;;4998681;28;20191;-67
2021/03/03 02:08:25;;;;;;;21.73;15.63;;;6.60;99.90;;;;;;4995274;28;20198;-67
2021/03/03 02:11:12;;;;;;;22.87;16.93;;;6.60;99.90;;;;;;4994441;28;20199;-67
2021/03/03 02:13:44;;;;;;;21.53;14.50;;;6.50;99.90;;;;;;4992499;28;20762;-67
2021/03/03 02:16:12;;;;;;;24.10;14.73;;;6.50;99.90;;;;;;4993372;28;20441;-67
2021/03/03 02:18:39;;;;;;;26.23;15.93;;;6.50;99.90;;;;;;5004045;28;20475;-67
2021/03/03 02:21:08;;;;;;;19.43;14.53;;;6.50;99.90;;;;;;5000596;28;20470;-67
2021/03/03 02:23:59;;;;;;;22.00;15.80;;;6.50;99.90;;;;;;4992728;28;20446;-67
2021/03/03 02:26:33;;;;;;;19.40;15.70;;;6.50;99.90;;;;;;5001663;28;20459;-67
2021/03/03 02:29:09;;;;;;;25.70;15.37;;;6.50;99.90;;;;;;4993426;28;20438;-67
2021/03/03 02:31:35;;;;;;;26.30;16.03;;;6.50;99.90;;;;;;4993314;28;20766;-67
2021/03/03 02:34:03;;;;;;;24.00;16.30;;;6.50;99.90;;;;;;4992516;28;21309;-67
2021/03/03 02:36:30;;;;;;;22.77;14.47;;;6.50;99.90;;;;;;5002806;28;20542;-67
2021/03/03 02:38:56;;;;;;;21.20;15.30;;;6.50;99.90;;;;;;4996146;28;20434;-67
2021/03/03 02:41:22;;;;;;;24.83;17.80;;;6.50;99.90;;;;;;4996232;28;20422;-67
2021/03/03 02:43:49;;;;;;;23.63;14.90;;;6.50;99.90;;;;;;4992211;28;20461;-67
2021/03/03 02:46:14;;;;;;;17.20;14.23;;;6.50;99.90;;;;;;4992631;28;20179;-67
2021/03/03 02:48:41;;;;;;;25.03;16.83;;;6.40;99.90;;;;;;5019092;22;20909;-71
2021/03/03 02:51:07;;;;;;;19.83;14.40;;;6.30;99.90;;;;;;5001630;28;20764;-71
2021/03/03 02:53:33;;;;;;;22.87;15.80;;;6.30;99.90;;;;;;4994732;28;20772;-71
2021/03/03 02:55:59;;;;;;;23.00;14.20;;;6.30;99.90;;;;;;5005033;28;20434;-71
2021/03/03 02:58:24;;;;;;;22.53;16.07;;;6.30;99.90;;;;;;4992810;28;20295;-71
2021/03/03 03:00:54;;;;;;;28.00;15.10;;;6.30;99.90;;;;;;4983777;28;20187;-69
2021/03/03 03:03:35;;;;;;;17.73;14.27;;;6.30;99.90;;;;;;4989925;28;20245;-71
2021/03/03 03:06:07;;;;;;;24.00;16.50;;;6.30;99.90;;;;;;4983168;28;20430;-70
2021/03/03 03:08:33;;;;;;;20.80;16.10;;;6.30;99.90;;;;;;5002292;28;20461;-71
2021/03/03 03:11:03;;;;;;;20.90;15.50;;;6.40;99.90;;;;;;5006587;28;20862;-71
2021/03/03 03:13:35;;;;;;;23.87;15.17;;;6.30;99.90;;;;;;4994099;28;20423;-71
2021/03/03 03:16:02;;;;;;;27.57;16.00;;;6.40;99.90;;;;;;4997393;28;20437;-71
2021/03/03 03:18:35;;;;;;;22.63;15.90;;;6.40;99.90;;;;;;5000716;28;21006;-70
2021/03/03 03:21:02;;;;;;;21.50;15.67;;;6.30;99.90;;;;;;4993401;28;20794;-69
2021/03/03 03:23:30;;;;;;;23.90;15.60;;;6.40;99.90;;;;;;5005433;28;20740;-70
2021/03/03 03:25:57;;;;;;;23.30;15.80;;;6.30;99.90;;;;;;5008935;28;20445;-71
2021/03/03 03:28:23;;;;;;;23.17;17.50;;;6.30;99.90;;;;;;5004846;28;20456;-69
2021/03/03 03:30:50;;;;;;;23.40;17.40;;;6.30;99.90;;;;;;5005415;28;20823;-71
2021/03/03 03:33:17;;;;;;;25.40;18.03;;;6.30;99.90;;;;;;5006885;28;20436;-71
2021/03/03 03:35:43;;;;;;;20.97;15.47;;;6.30;99.90;;;;;;4992230;28;20931;-71
2021/03/03 03:38:09;;;;;;;23.07;15.80;;;6.30;99.90;;;;;;4997322;28;20463;-70
2021/03/03 03:40:34;;;;;;;26.37;16.53;;;6.30;99.90;;;;;;5002276;28;20174;-70
2021/03/03 03:43:00;;;;;;;23.50;15.83;;;6.30;99.90;;;;;;4994985;28;20373;-71
2021/03/03 03:45:27;;;;;;;23.13;16.10;;;6.30;99.90;;;;;;4982876;28;20195;-71
2021/03/03 03:47:55;;;;;;;25.63;16.07;;;6.30;99.90;;;;;;4998292;28;21001;-71
2021/03/03 03:50:21;;;;;;;23.00;16.17;;;6.20;99.90;;;;;;4999528;28;20430;-71
2021/03/03 03:52:52;;;;;;;24.77;15.90;;;6.20;99.90;;;;;;4992075;28;20628;-71
2021/03/03 03:55:18;;;;;;;27.73;17.40;;;6.20;99.90;;;;;;5005754;28;20430;-71
2021/03/03 03:57:51;;;;;;;24.20;17.00;;;6.20;99.90;;;;;;4992307;28;20979;-71
2021/03/03 04:00:20;;;;;;;24.53;16.77;;;6.20;99.90;;;;;;4991287;28;20203;-71
2021/03/03 04:02:46;;;;;;;28.07;16.20;;;6.20;99.90;;;;;;4998407;28;20463;-70
2021/03/03 04:05:13;;;;;;;20.70;16.50;;;6.20;99.90;;;;;;5005437;28;20433;-70
2021/03/03 04:07:39;;;;;;;26.10;16.90;;;6.10;99.90;;;;;;4996470;28;20449;-71
2021/03/03 04:10:06;;;;;;;24.00;16.93;;;6.10;99.90;;;;;;5003153;28;20772;-71
2021/03/03 04:12:31;;;;;;;23.43;18.50;;;6.10;99.90;;;;;;5005810;28;20465;-70
2021/03/03 04:14:57;;;;;;;25.20;17.27;;;6.10;99.90;;;;;;4995161;28;20429;-71
2021/03/03 04:17:22;;;;;;;30.63;17.80;;;6.10;99.90;;;;;;5003558;28;20188;-71
2021/03/03 04:19:48;;;;;;;22.07;16.20;;;6.10;99.90;;;;;;5004155;28;20181;-71
2021/03/03 04:22:14;;;;;;;21.30;16.37;;;6.10;99.90;;;;;;5004042;28;20587;-70
2021/03/03 04:24:39;;;;;;;30.10;18.37;;;6.10;99.90;;;;;;4992082;28;20186;-70
2021/03/03 04:27:05;;;;;;;23.20;17.00;;;6.10;99.90;;;;;;5008286;28;20206;-71
2021/03/03 04:29:30;;;;;;;30.20;18.73;;;6.00;99.90;;;;;;5001631;28;20183;-73
2021/03/03 04:31:56;;;;;;;20.23;16.30;;;6.00;99.90;;;;;;5007182;28;20206;-70
2021/03/03 04:34:21;;;;;;;22.23;15.30;;;6.00;99.90;;;;;;5008565;28;20183;-71
2021/03/03 04:36:47;;;;;;;22.83;15.50;;;6.00;99.90;;;;;;4994474;28;20517;-70
2021/03/03 04:39:13;;;;;;;27.60;17.77;;;6.00;99.90;;;;;;5006676;28;20170;-71
2021/03/03 04:41:38;;;;;;;21.80;16.70;;;6.00;99.90;;;;;;4993195;28;20176;-70
2021/03/03 04:44:04;;;;;;;27.47;19.20;;;5.90;99.90;;;;;;4998491;28;20270;-71
2021/03/03 04:46:29;;;;;;;28.77;17.70;;;5.90;99.90;;;;;;5004389;28;20178;-70
2021/03/03 04:48:55;;;;;;;25.07;16.73;;;5.80;99.90;;;;;;4992777;28;20742;-70
2021/03/03 04:51:21;;;;;;;23.20;18.37;;;5.80;99.90;;;;;;5005752;28;20318;-70
2021/03/03 04:53:46;;;;;;;26.83;18.30;;;5.80;99.90;;;;;;4997114;28;20878;-69
2021/03/03 04:56:12;;;;;;;24.93;18.10;;;5.80;99.90;;;;;;5006258;28;20607;-70
2021/03/03 04:58:37;;;;;;;26.13;19.50;;;5.80;99.90;;;;;;4991332;28;20548;-70
2021/03/03 05:01:03;;;;;;;25.67;17.80;;;5.90;99.90;;;;;;5004216;28;20187;-70
2021/03/03 05:03:28;;;;;;;29.77;17.83;;;5.90;99.90;;;;;;4997918;28;20179;-70
2021/03/03 05:05:54;;;;;;;29.27;18.93;;;5.90;99.90;;;;;;5008901;28;20254;-71
2021/03/03 05:08:19;;;;;;;25.00;17.80;;;5.90;99.90;;;;;;4986302;28;20192;-71
2021/03/03 05:10:45;;;;;;;30.40;17.40;;;5.90;99.90;;;;;;4996392;28;20260;-70
2021/03/03 05:13:15;;;;;;;27.30;19.33;;;5.90;99.90;;;;;;4992421;28;20176;-71
2021/03/03 05:15:41;;;;;;;25.70;17.67;;;5.90;99.90;;;;;;4983885;28;20180;-71
2021/03/03 05:18:11;;;;;;;28.67;18.80;;;5.90;99.90;;;;;;5007467;28;20949;-71
2021/03/03 05:20:37;;;;;;;24.50;16.70;;;5.90;99.90;;;;;;4989837;28;20791;-71
2021/03/03 05:23:04;;;;;;;21.90;17.67;;;5.90;99.90;;;;;;4998571;28;20439;-70
2021/03/03 05:25:30;;;;;;;29.40;18.00;;;5.90;99.90;;;;;;4989205;28;20759;-69
2021/03/03 05:27:56;;;;;;;28.10;18.03;;;5.90;99.90;;;;;;5009857;28;21046;-69
2021/03/03 05:30:24;;;;;;;23.00;17.17;;;5.90;99.90;;;;;;4992143;28;20420;-71
2021/03/03 05:32:50;;;;;;;28.43;18.30;;;5.80;99.90;;;;;;4983730;28;20462;-70
2021/03/03 05:35:15;;;;;;;25.30;17.17;;;5.80;99.90;;;;;;4991280;28;20517;-70
2021/03/03 05:37:41;;;;;;;27.30;19.87;;;5.80;99.90;;;;;;4993768;28;20934;-71
2021/03/03 05:40:07;;;;;;;34.13;20.30;;;5.70;99.90;;;;;;4996575;28;20183;-70
2021/03/03 05:42:35;;;;;;;27.17;19.30;;;5.70;99.90;;;;;;4994079;28;20191;-70
2021/03/03 05:45:03;;;;;;;24.17;18.00;;;5.70;99.90;;;;;;4993850;28;20466;-69
2021/03/03 05:47:32;;;;;;;26.67;16.80;;;5.70;99.90;;;;;;4993872;28;20470;-71
2021/03/03 05:50:00;;;;;;;26.93;17.77;;;5.70;99.90;;;;;;4994614;28;20875;-69
2021/03/03 05:52:28;;;;;;;32.90;18.83;;;5.70;99.90;;;;;;4989060;28;20458;-70
2021/03/03 05:54:55;;;;;;;26.37;18.77;;;5.60;99.90;;;;;;5006931;28;20788;-70
2021/03/03 05:57:22;;;;;;;28.37;19.10;;;5.60;99.90;;;;;;4998788;28;20445;-70
2021/03/03 05:59:48;;;;;;;24.10;17.53;;;5.70;99.90;;;;;;5007033;28;20505;-70
2021/03/03 06:02:14;;;;;;;26.43;16.73;;;5.80;99.90;;;;;;4980310;28;20445;-71
2021/03/03 06:04:40;;;;;;;25.17;18.77;;;5.80;99.90;;;;;;4996125;28;20972;-72
2021/03/03 06:07:06;;;;;;;22.50;17.57;;;5.80;99.90;;;;;;5002820;28;20539;-68
2021/03/03 06:09:31;;;;;;;28.13;17.87;;;5.90;99.90;;;;;;5007871;28;20179;-69
2021/03/03 06:11:57;;;;;;;29.80;19.20;;;5.90;99.90;;;;;;5010575;28;20206;-69
2021/03/03 06:14:23;;;;;;;24.50;17.23;;;5.90;99.90;;;;;;5003684;28;20588;-68
2021/03/03 06:16:49;;;;;;;23.60;17.77;;;5.80;99.90;;;;;;5004773;28;20211;-73
2021/03/03 06:19:16;;;;;;;24.50;18.37;;;5.90;99.90;;;;;;4998852;28;20205;-74
2021/03/03 06:21:42;;;;;;;30.33;17.67;;;5.90;99.90;;;;;;5006342;28;20470;-69
2021/03/03 06:24:09;;;;;;;29.33;18.13;;;5.90;99.90;;;;;;4995834;28;20482;-69
2021/03/03 06:26:52;;;;;;;25.93;17.53;;;6.00;99.90;;;;;;5012592;28;20438;-71
2021/03/03 06:29:18;;;;;;;32.10;19.10;;;6.00;99.90;;;;;;5013223;28;20461;-69
2021/03/03 06:31:43;;;;;;;26.83;19.07;;;6.00;99.90;;;;;;4995286;28;20505;-71
2021/03/03 06:34:18;;;;;;;21.63;17.63;;;6.00;99.90;;;;;;5000750;28;20206;-71
2021/03/03 06:36:46;;;;;;;28.17;19.10;;;6.00;99.90;;;;;;5011847;28;20595;-70
2021/03/03 06:39:15;;;;;;;27.17;17.73;;;6.00;99.90;;;;;;5008417;28;20422;-71
2021/03/03 06:41:41;;;;;;;25.53;18.80;;;6.10;99.90;;;;;;4984860;28;20438;-72
2021/03/03 06:44:07;;;;;;;23.53;17.40;;;6.10;99.90;;;;;;5003578;28;20504;-72
2021/03/03 06:46:32;;;;;;;23.13;18.27;;;6.10;99.90;;;;;;5008695;28;20175;-71
2021/03/03 06:48:58;;;;;;;26.23;18.10;;;6.10;99.90;;;;;;5012569;28;20189;-72
2021/03/03 06:51:25;;;;;;;32.77;20.00;;;6.20;99.90;;;;;;4994176;28;20200;-70
2021/03/03 06:53:52;;;;;;;25.17;16.60;;;6.20;99.90;;;;;;4989593;28;20673;-72
2021/03/03 06:56:38;;;;;;;29.50;20.00;;;6.30;99.90;;;;;;4995754;28;20422;-71
2021/03/03 06:59:18;;;;;;;22.60;17.33;;;6.40;99.90;;;;;;4996011;28;20847;-71
2021/03/03 07:01:47;;;;;;;25.03;19.40;;;6.30;99.90;;;;;;4996056;28;20791;-71
2021/03/03 07:04:32;;;;;;;29.90;21.90;;;6.30;99.90;;;;;;5004636;28;20550;-72
2021/03/03 07:07:10;;;;;;;23.70;18.83;;;6.30;99.90;;;;;;5004562;28;20449;-72
2021/03/03 07:09:40;;;;;;;32.43;21.03;;;6.30;99.90;;;;;;5009166;28;20936;-71
2021/03/03 07:12:08;;;;;;;24.40;19.17;;;6.40;99.90;;;;;;4993887;28;21024;-72
2021/03/03 07:14:34;;;;;;;26.93;17.70;;;6.40;99.90;;;;;;4978391;28;20438;-71
2021/03/03 07:17:04;;;;;;;24.47;18.00;;;6.40;99.90;;;;;;4982248;28;20447;-71
2021/03/03 07:19:31;;;;;;;24.73;17.10;;;6.50;99.90;;;;;;4985392;28;20427;-71
2021/03/03 07:21:57;;;;;;;25.10;17.23;;;6.60;99.90;;;;;;4991817;28;20861;-71
2021/03/03 07:24:23;;;;;;;33.80;18.77;;;6.70;99.90;;;;;;5000257;28;20468;-72
2021/03/03 07:26:49;;;;;;;26.70;19.57;;;6.80;99.90;;;;;;5006376;28;20462;-72
2021/03/03 07:29:15;;;;;;;23.70;17.20;;;6.80;99.90;;;;;;4990812;28;20438;-71
2021/03/03 07:31:41;;;;;;;28.90;19.40;;;6.90;99.90;;;;;;5002303;28;20398;-72
2021/03/03 07:34:07;;;;;;;29.87;19.37;;;7.00;99.90;;;;;;4998601;28;20583;-72
2021/03/03 07:36:38;;;;;;;28.40;19.17;;;7.10;99.90;;;;;;4999261;28;20223;-72
2021/03/03 07:39:05;;;;;;;27.67;19.30;;;7.20;99.90;;;;;;4987886;28;20424;-72
2021/03/03 07:41:43;;;;;;;29.13;19.07;;;7.30;99.90;;;;;;4976811;28;20434;-72
2021/03/03 07:44:11;;;;;;;27.67;19.67;;;7.40;99.90;;;;;;4990335;28;20438;-71
2021/03/03 07:46:40;;;;;;;30.23;21.83;;;7.50;99.90;;;;;;4990469;28;20474;-71
2021/03/03 07:49:09;;;;;;;30.53;19.20;;;7.60;99.90;;;;;;5007396;28;20560;-72
2021/03/03 07:51:36;;;;;;;21.97;17.87;;;7.70;99.90;;;;;;5004095;28;20469;-72
2021/03/03 07:54:02;;;;;;;29.63;19.57;;;7.70;99.90;;;;;;4992527;28;20466;-72
2021/03/03 07:56:28;;;;;;;24.93;17.70;;;7.80;99.90;;;;;;4977328;28;20436;-72
2021/03/03 07:58:55;;;;;;;29.70;17.90;;;7.90;99.90;;;;;;4989569;28;20944;-72
2021/03/03 08:01:21;;;;;;;27.40;18.63;;;7.90;99.90;;;;;;5007738;28;20499;-72
2021/03/03 08:03:47;;;;;;;28.90;19.40;;;7.90;99.90;;;;;;4990438;28;20443;-72
2021/03/03 08:06:34;;;;;;;28.50;19.10;;;8.00;99.90;;;;;;4991051;28;20187;-70
2021/03/03 08:09:08;;;;;;;25.33;21.83;;;8.10;99.90;;;;;;5008470;28;20971;-71
2021/03/03 08:11:42;;;;;;;35.40;23.83;;;8.20;99.90;;;;;;4990836;28;20497;-72
2021/03/03 08:14:28;;;;;;;28.20;19.37;;;8.30;99.90;;;;;;4990315;28;20794;-72
2021/03/03 08:16:59;;;;;;;32.80;21.50;;;8.40;99.90;;;;;;5005919;28;20437;-70
2021/03/03 08:19:53;;;;;;;31.67;20.50;;;8.50;99.90;;;;;;4987043;28;20428;-72
2021/03/03 08:22:19;;;;;;;27.37;19.63;;;8.70;99.90;;;;;;4997909;28;20430;-72
2021/03/03 08:24:45;;;;;;;31.47;21.93;;;8.70;99.90;;;;;;4982738;28;20471;-72
2021/03/03 08:27:29;;;;;;;26.73;18.73;;;8.80;99.90;;;;;;4976566;28;20497;-72
2021/03/03 08:30:16;;;;;;;25.30;18.00;;;8.80;99.90;;;;;;5000530;28;20433;-71
2021/03/03 08:32:42;;;;;;;26.20;17.40;;;8.80;99.90;;;;;;4992662;28;20462;-71
2021/03/03 08:35:09;;;;;;;26.57;17.80;;;8.60;99.90;;;;;;4985448;28;20491;-72
2021/03/03 08:37:37;;;;;;;36.60;17.07;;;8.50;99.90;;;;;;5006357;28;20458;-72
2021/03/03 08:40:23;;;;;;;26.83;19.90;;;8.40;99.90;;;;;;5000149;28;20430;-72
2021/03/03 08:42:49;;;;;;;25.63;19.37;;;8.50;99.90;;;;;;5000145;28;20485;-72
2021/03/03 08:45:16;;;;;;;24.03;17.50;;;8.50;99.90;;;;;;5001525;28;20834;-71
2021/03/03 08:47:46;;;;;;;20.43;16.60;;;8.60;99.90;;;;;;5005002;23;20223;-69
2021/03/03 08:50:27;;;;;;;22.40;16.63;;;8.60;99.90;;;;;;4999957;28;20504;-68
2021/03/03 08:53:22;;;;;;;28.03;17.73;;;8.70;99.90;;;;;;4999039;28;20430;-66
2021/03/03 08:55:48;;;;;;;27.87;19.40;;;8.70;99.90;;;;;;4991346;28;20422;-66
2021/03/03 08:58:45;;;;;;;28.17;19.03;;;8.90;99.90;;;;;;5004167;28;20794;-66
2021/03/03 09:01:11;;;;;;;27.50;19.03;;;9.20;99.90;;;;;;5004029;28;20193;-68
2021/03/03 09:03:37;;;;;;;25.50;20.60;;;9.40;99.90;;;;;;5009290;28;20423;-67
2021/03/03 09:06:03;;;;;;;28.23;20.47;;;9.50;99.90;;;;;;5010084;28;20198;-68
2021/03/03 09:08:28;;;;;;;30.70;18.70;;;9.70;99.90;;;;;;5009133;28;20558;-68
2021/03/03 09:10:54;;;;;;;35.03;19.50;;;9.60;99.90;;;;;;5007902;28;20470;-68
2021/03/03 09:13:24;;;;;;;30.87;20.50;;;9.50;99.90;;;;;;5009500;28;20656;-68
2021/03/03 09:16:07;;;;;;;25.80;21.50;;;9.50;99.90;;;;;;4999798;28;20184;-68
2021/03/03 09:18:37;;;;;;;28.50;20.03;;;9.50;99.90;;;;;;5000847;28;20544;-68
2021/03/03 09:21:12;;;;;;;34.00;21.00;;;9.30;99.90;;;;;;4995527;28;20441;-68
2021/03/03 09:23:39;;;;;;;34.70;19.77;;;9.40;99.90;;;;;;4993718;28;20448;-68
2021/03/03 09:26:20;;;;;;;47.17;20.77;;;9.50;99.90;;;;;;4992276;28;20501;-68
2021/03/03 09:28:46;;;;;;;34.40;22.10;;;9.50;99.90;;;;;;5006513;28;20450;-68
2021/03/03 09:31:28;;;;;;;29.13;20.10;;;9.40;99.90;;;;;;5006986;28;20470;-68
2021/03/03 09:33:54;;;;;;;38.60;21.77;;;9.40;99.90;;;;;;5004958;28;20726;-68
2021/03/03 09:36:19;;;;;;;29.63;21.30;;;9.40;99.90;;;;;;5002378;28;20545;-68
2021/03/03 09:38:59;;;;;;;31.90;21.50;;;9.50;99.90;;;;;;5005688;28;20198;-68
2021/03/03 09:41:26;;;;;;;27.57;20.40;;;9.50;99.90;;;;;;4991115;28;20390;-68
2021/03/03 09:44:05;;;;;;;35.30;23.80;;;9.60;99.90;;;;;;4992496;28;20430;-67
2021/03/03 09:46:57;;;;;;;40.00;22.83;;;9.70;99.90;;;;;;5005891;28;20521;-67
2021/03/03 09:49:30;;;;;;;26.37;20.30;;;10.10;99.90;;;;;;4998119;28;20445;-67
2021/03/03 09:51:58;;;;;;;30.13;21.57;;;10.50;99.90;;;;;;5003097;28;20463;-67
2021/03/03 09:54:35;;;;;;;32.00;22.97;;;10.80;99.90;;;;;;5002859;28;20430;-67
2021/03/03 09:57:06;;;;;;;29.27;20.10;;;11.10;99.90;;;;;;4994881;28;20436;-67
2021/03/03 09:59:33;;;;;;;24.57;20.50;;;11.40;99.90;;;;;;5001570;28;20434;-67
2021/03/03 10:01:59;;;;;;;25.63;20.53;;;11.40;99.90;;;;;;5004964;28;20429;-67
2021/03/03 10:04:26;;;;;;;28.17;21.40;;;11.40;99.90;;;;;;4993536;28;20757;-67
2021/03/03 10:06:58;;;;;;;33.80;21.33;;;11.30;99.90;;;;;;4991082;28;20437;-67
2021/03/03 10:09:23;;;;;;;29.77;20.80;;;11.20;99.90;;;;;;5002685;28;20434;-67
2021/03/03 10:11:49;;;;;;;28.30;21.20;;;11.00;99.90;;;;;;4999636;28;20469;-67
2021/03/03 10:14:15;;;;;;;28.70;21.43;;;10.90;99.90;;;;;;4997599;28;20377;-67
2021/03/03 10:16:41;;;;;;;28.10;19.80;;;10.90;99.90;;;;;;5004084;28;20186;-66
2021/03/03 10:19:10;;;;;;;26.83;20.20;;;11.20;99.90;;;;;;5010591;28;20218;-66
2021/03/03 10:21:45;;;;;;;31.83;22.10;;;11.40;99.90;;;;;;5011095;28;20440;-66
2021/03/03 10:24:16;;;;;;;24.20;21.60;;;11.80;99.90;;;;;;5000529;28;20444;-66
2021/03/03 10:26:50;;;;;;;25.97;20.43;;;11.60;99.90;;;;;;4999805;28;20902;-66
2021/03/03 10:29:36;;;;;;;31.13;21.63;;;11.80;99.90;;;;;;5000564;28;20436;-66
2021/03/03 10:32:12;;;;;;;31.60;21.50;;;12.10;99.90;;;;;;5005175;28;20561;-66
2021/03/03 10:34:38;;;;;;;30.67;22.83;;;12.40;99.90;;;;;;4999635;28;20422;-66
2021/03/03 10:37:05;;;;;;;27.83;20.57;;;12.60;99.90;;;;;;5011035;28;20465;-66
2021/03/03 10:39:33;;;;;;;26.70;21.10;;;12.80;99.90;;;;;;5010967;28;20531;-67
2021/03/03 10:42:07;;;;;;;29.50;20.73;;;12.90;99.90;;;;;;5010162;28;20441;-66
2021/03/03 10:44:42;;;;;;;27.57;21.33;;;13.00;99.90;;;;;;5011839;28;20417;-66
2021/03/03 10:47:09;;;;;;;26.10;20.90;;;12.80;99.90;;;;;;4996061;28;20829;-67
2021/03/03 10:49:39;;;;;;;35.90;22.80;;;13.30;99.90;;;;;;5008553;28;20556;-66
2021/03/03 10:52:20;;;;;;;31.90;23.20;;;13.60;99.90;;;;;;4995570;28;20465;-66
2021/03/03 10:54:46;;;;;;;24.93;21.87;;;14.10;99.90;;;;;;5007568;28;20426;-66
2021/03/03 10:57:12;;;;;;;25.47;22.00;;;14.30;99.90;;;;;;5003470;28;20451;-68
2021/03/03 10:59:38;;;;;;;27.03;22.23;;;14.30;99.90;;;;;;5001442;28;20194;-67
2021/03/03 11:02:05;;;;;;;25.23;22.40;;;14.50;99.90;;;;;;5001116;28;20179;-67
2021/03/03 11:04:38;;;;;;;23.73;21.23;;;14.70;99.90;;;;;;5000460;28;20483;-67
2021/03/03 11:07:03;;;;;;;25.30;20.00;;;14.70;99.90;;;;;;5008118;28;20457;-66
2021/03/03 11:09:29;;;;;;;26.77;22.30;;;14.10;99.90;;;;;;5007364;28;20464;-66
2021/03/03 11:11:56;;;;;;;25.20;21.80;;;14.00;99.90;;;;;;5009298;28;20203;-66
2021/03/03 11:14:23;;;;;;;28.87;21.87;;;14.10;99.90;;;;;;4995056;28;20183;-66
2021/03/03 11:16:50;;;;;;;25.20;22.23;;;13.80;99.90;;;;;;5001564;28;20514;-66
2021/03/03 11:19:16;;;;;;;32.17;20.63;;;13.80;99.90;;;;;;5001184;28;20434;-66
2021/03/03 11:21:42;;;;;;;29.77;21.33;;;13.90;99.90;;;;;;5009952;28;20544;-66
2021/03/03 11:24:09;;;;;;;25.77;21.80;;;14.30;99.90;;;;;;5009825;28;20442;-66
2021/03/03 11:26:38;;;;;;;32.80;24.37;;;14.80;99.90;;;;;;5002863;28;20438;-66
2021/03/03 11:29:04;;;;;;;34.17;24.57;;;15.00;99.90;;;;;;4999431;28;20520;-66
2021/03/03 11:31:30;;;;;;;38.00;23.53;;;15.20;99.50;;;;;;5006256;28;20465;-66
2021/03/03 11:33:56;;;;;;;24.73;21.67;;;15.30;98.90;;;;;;5005252;28;20480;-66
2021/03/03 11:36:22;;;;;;;25.00;19.77;;;15.50;98.10;;;;;;4993099;28;20863;-66
2021/03/03 11:38:47;;;;;;;21.80;19.50;;;15.60;98.00;;;;;;5006656;28;20932;-67
2021/03/03 11:41:13;;;;;;;30.03;19.90;;;15.20;97.60;;;;;;5012208;28;20198;-66
2021/03/03 11:43:38;;;;;;;26.77;22.33;;;15.00;98.30;;;;;;4998548;28;20278;-66
2021/03/03 11:46:04;;;;;;;30.93;24.87;;;15.40;98.70;;;;;;5004995;28;20183;-66
2021/03/03 11:48:29;;;;;;;30.67;23.63;;;15.80;98.20;;;;;;4992602;28;20700;-66
2021/03/03 11:50:55;;;;;;;30.90;22.40;;;15.70;97.60;;;;;;5011037;28;20691;-66
2021/03/03 11:53:20;;;;;;;29.67;24.07;;;15.80;97.50;;;;;;5010156;28;20175;-66
2021/03/03 11:55:46;;;;;;;29.00;22.47;;;15.70;97.40;;;;;;5011162;28;20269;-66
2021/03/03 11:58:12;;;;;;;29.47;22.53;;;15.70;97.70;;;;;;5002123;28;20210;-65
2021/03/03 12:00:37;;;;;;;32.97;22.40;;;15.70;97.40;;;;;;5004107;28;20186;-66
2021/03/03 12:03:03;;;;;;;28.50;21.57;;;15.70;97.30;;;;;;5002326;28;20218;-65
2021/03/03 12:05:29;;;;;;;28.40;20.90;;;15.90;97.00;;;;;;5007015;28;20258;-66
2021/03/03 12:07:54;;;;;;;26.80;21.47;;;16.00;96.70;;;;;;4993334;28;20541;-66
2021/03/03 12:10:20;;;;;;;29.23;21.10;;;16.10;96.40;;;;;;5001039;28;20193;-66
2021/03/03 12:12:46;;;;;;;23.73;21.27;;;16.10;96.40;;;;;;5006416;28;20214;-66
2021/03/03 12:15:11;;;;;;;28.37;20.43;;;16.20;96.10;;;;;;5008825;28;20191;-66
2021/03/03 12:17:37;;;;;;;23.37;20.53;;;16.20;95.90;;;;;;4996121;28;20199;-66
2021/03/03 12:20:06;;;;;;;21.83;19.60;;;16.30;95.20;;;;;;5006837;28;20611;-66
2021/03/03 12:22:32;;;;;;;23.40;20.90;;;16.10;95.30;;;;;;5010578;28;20270;-67
2021/03/03 12:24:58;;;;;;;27.20;22.03;;;15.90;95.30;;;;;;5009180;28;20496;-67
2021/03/03 12:27:24;;;;;;;38.20;26.13;;;15.80;95.60;;;;;;5009636;28;20457;-67
2021/03/03 12:29:49;;;;;;;27.30;20.33;;;15.70;95.90;;;;;;5006757;28;20190;-67
2021/03/03 12:32:15;;;;;;;29.63;20.57;;;15.80;95.60;;;;;;5011042;28;20241;-67
2021/03/03 12:34:41;;;;;;;23.07;20.67;;;15.90;94.80;;;;;;5010218;28;20632;-67
2021/03/03 12:37:07;;;;;;;24.13;21.73;;;15.60;94.40;;;;;;5010035;28;20178;-67
2021/03/03 12:39:33;;;;;;;21.00;18.53;;;15.70;94.50;;;;;;5010948;28;20233;-67
2021/03/03 12:41:58;;;;;;;23.63;20.93;;;15.60;94.30;;;;;;5010070;28;20536;-67